sensor_id;sensor_type;location;lat;lon;timestamp;P1;durP1;ratioP1;P2;durP2;ratioP2
9964;SDS011;5023;53.554;9.964;2023-02-03T00:04:38;8.77;;;7.73;;
9964;SDS011;5023;53.554;9.964;2023-02-03T00:09:41;15.10;;;11.27;;
9964;SDS011;5023;53.554;9.964;2023-02-03T00:14:44;9.27;;;8.27;;
9964;SDS011;5023;53.554;9.964;2023-02-03T00:19:46;8.77;;;7.87;;
9964;SDS011;5023;53.554;9.964;2023-02-03T00:24:50;11.20;;;8.53;;
9964;SDS011;5023;53.554;9.964;2023-02-03T00:29:52;11.03;;;9.50;;
9964;SDS011;5023;53.554;9.964;2023-02-03T00:34:55;10.43;;;9.33;;
9964;SDS011;5023;53.554;9.964;2023-02-03T00:39:59;22.37;;;18.57;;
9964;SDS011;5023;53.554;9.964;2023-02-03T00:45:00;10.07;;;8.83;;
9964;SDS011;5023;53.554;9.964;2023-02-03T00:50:03;10.63;;;8.50;;
9964;SDS011;5023;53.554;9.964;2023-02-03T00:55:08;10.77;;;9.00;;
9964;SDS011;5023;53.554;9.964;2023-02-03T01:00:11;9.00;;;7.90;;
9964;SDS011;5023;53.554;9.964;2023-02-03T01:05:13;11.00;;;8.20;;
9964;SDS011;5023;53.554;9.964;2023-02-03T01:10:17;11.77;;;7.93;;
9964;SDS011;5023;53.554;9.964;2023-02-03T01:15:19;15.63;;;8.73;;
9964;SDS011;5023;53.554;9.964;2023-02-03T01:20:21;14.73;;;8.23;;
9964;SDS011;5023;53.554;9.964;2023-02-03T01:25:25;10.53;;;8.23;;
9964;SDS011;5023;53.554;9.964;2023-02-03T01:30:27;11.40;;;8.10;;
9964;SDS011;5023;53.554;9.964;2023-02-03T01:35:29;13.40;;;7.57;;
9964;SDS011;5023;53.554;9.964;2023-02-03T01:40:32;10.23;;;7.13;;
9964;SDS011;5023;53.554;9.964;2023-02-03T01:45:34;11.83;;;7.43;;
9964;SDS011;5023;53.554;9.964;2023-02-03T01:50:36;10.40;;;6.83;;
9964;SDS011;5023;53.554;9.964;2023-02-03T01:55:41;8.67;;;6.40;;
9964;SDS011;5023;53.554;9.964;2023-02-03T02:00:46;11.40;;;6.37;;
9964;SDS011;5023;53.554;9.964;2023-02-03T02:05:51;10.23;;;6.47;;
9964;SDS011;5023;53.554;9.964;2023-02-03T02:10:59;11.80;;;6.60;;
9964;SDS011;5023;53.554;9.964;2023-02-03T02:16:04;8.70;;;6.17;;
9964;SDS011;5023;53.554;9.964;2023-02-03T02:21:12;8.97;;;5.60;;
9964;SDS011;5023;53.554;9.964;2023-02-03T02:26:49;9.90;;;6.40;;
9964;SDS011;5023;53.554;9.964;2023-02-03T02:32:04;8.53;;;5.80;;
9964;SDS011;5023;53.554;9.964;2023-02-03T02:37:14;10.00;;;5.83;;
9964;SDS011;5023;53.554;9.964;2023-02-03T02:42:25;8.40;;;5.67;;
9964;SDS011;5023;53.554;9.964;2023-02-03T02:47:35;6.73;;;5.50;;
9964;SDS011;5023;53.554;9.964;2023-02-03T02:52:40;10.10;;;5.33;;
9964;SDS011;5023;53.554;9.964;2023-02-03T02:57:45;9.60;;;5.40;;
9964;SDS011;5023;53.554;9.964;2023-02-03T03:02:49;10.43;;;5.10;;
9964;SDS011;5023;53.554;9.964;2023-02-03T03:07:52;9.70;;;4.80;;
9964;SDS011;5023;53.554;9.964;2023-02-03T03:12:59;10.27;;;4.70;;
9964;SDS011;5023;53.554;9.964;2023-02-03T03:18:06;9.70;;;4.13;;
9964;SDS011;5023;53.554;9.964;2023-02-03T03:23:14;7.67;;;4.07;;
9964;SDS011;5023;53.554;9.964;2023-02-03T03:28:22;5.80;;;4.00;;
9964;SDS011;5023;53.554;9.964;2023-02-03T03:33:29;7.57;;;3.70;;
9964;SDS011;5023;53.554;9.964;2023-02-03T03:38:33;7.03;;;3.40;;
9964;SDS011;5023;53.554;9.964;2023-02-03T03:43:42;5.80;;;3.10;;
9964;SDS011;5023;53.554;9.964;2023-02-03T03:48:50;8.10;;;3.53;;
9964;SDS011;5023;53.554;9.964;2023-02-03T03:53:58;6.47;;;3.33;;
9964;SDS011;5023;53.554;9.964;2023-02-03T03:59:03;8.80;;;3.30;;
9964;SDS011;5023;53.554;9.964;2023-02-03T04:04:10;8.87;;;3.40;;
9964;SDS011;5023;53.554;9.964;2023-02-03T04:09:14;7.70;;;3.83;;
9964;SDS011;5023;53.554;9.964;2023-02-03T04:14:16;5.37;;;3.50;;
9964;SDS011;5023;53.554;9.964;2023-02-03T04:19:20;5.93;;;3.60;;
9964;SDS011;5023;53.554;9.964;2023-02-03T04:24:22;7.13;;;4.43;;
9964;SDS011;5023;53.554;9.964;2023-02-03T04:29:24;6.33;;;3.47;;
9964;SDS011;5023;53.554;9.964;2023-02-03T04:34:28;3.57;;;3.23;;
9964;SDS011;5023;53.554;9.964;2023-02-03T04:39:30;5.77;;;3.90;;
9964;SDS011;5023;53.554;9.964;2023-02-03T04:44:33;5.57;;;3.60;;
9964;SDS011;5023;53.554;9.964;2023-02-03T04:49:36;4.90;;;3.57;;
9964;SDS011;5023;53.554;9.964;2023-02-03T04:54:38;8.30;;;4.20;;
9964;SDS011;5023;53.554;9.964;2023-02-03T04:59:40;6.60;;;4.03;;
9964;SDS011;5023;53.554;9.964;2023-02-03T05:04:44;8.07;;;4.47;;
9964;SDS011;5023;53.554;9.964;2023-02-03T05:09:47;7.47;;;4.40;;
9964;SDS011;5023;53.554;9.964;2023-02-03T05:14:49;7.30;;;4.43;;
9964;SDS011;5023;53.554;9.964;2023-02-03T05:19:55;9.33;;;4.57;;
9964;SDS011;5023;53.554;9.964;2023-02-03T05:24:57;10.30;;;4.90;;
9964;SDS011;5023;53.554;9.964;2023-02-03T05:30:00;6.70;;;4.30;;
9964;SDS011;5023;53.554;9.964;2023-02-03T05:35:05;5.80;;;3.87;;
9964;SDS011;5023;53.554;9.964;2023-02-03T05:40:08;5.30;;;4.20;;
9964;SDS011;5023;53.554;9.964;2023-02-03T05:45:28;5.83;;;3.83;;
9964;SDS011;5023;53.554;9.964;2023-02-03T05:50:32;6.80;;;4.10;;
9964;SDS011;5023;53.554;9.964;2023-02-03T05:55:34;5.93;;;3.47;;
9964;SDS011;5023;53.554;9.964;2023-02-03T06:00:37;8.27;;;4.20;;
9964;SDS011;5023;53.554;9.964;2023-02-03T06:05:40;9.13;;;3.80;;
9964;SDS011;5023;53.554;9.964;2023-02-03T06:10:43;7.27;;;3.37;;
9964;SDS011;5023;53.554;9.964;2023-02-03T06:15:45;5.10;;;2.97;;
9964;SDS011;5023;53.554;9.964;2023-02-03T06:20:51;7.97;;;3.70;;
9964;SDS011;5023;53.554;9.964;2023-02-03T06:25:54;6.07;;;3.63;;
9964;SDS011;5023;53.554;9.964;2023-02-03T06:30:56;5.03;;;3.37;;
9964;SDS011;5023;53.554;9.964;2023-02-03T06:36:00;4.43;;;3.50;;
9964;SDS011;5023;53.554;9.964;2023-02-03T06:41:02;4.97;;;3.27;;
9964;SDS011;5023;53.554;9.964;2023-02-03T06:46:05;6.27;;;3.40;;
9964;SDS011;5023;53.554;9.964;2023-02-03T06:51:08;7.83;;;3.80;;
9964;SDS011;5023;53.554;9.964;2023-02-03T06:56:10;12.20;;;4.20;;
9964;SDS011;5023;53.554;9.964;2023-02-03T07:01:12;10.30;;;4.57;;
9964;SDS011;5023;53.554;9.964;2023-02-03T07:06:16;8.60;;;4.33;;
9964;SDS011;5023;53.554;9.964;2023-02-03T07:11:18;8.70;;;4.07;;
9964;SDS011;5023;53.554;9.964;2023-02-03T07:16:20;9.67;;;4.03;;
9964;SDS011;5023;53.554;9.964;2023-02-03T07:21:24;9.57;;;3.83;;
9964;SDS011;5023;53.554;9.964;2023-02-03T07:26:26;9.10;;;4.33;;
9964;SDS011;5023;53.554;9.964;2023-02-03T07:31:29;7.10;;;3.47;;
9964;SDS011;5023;53.554;9.964;2023-02-03T07:36:32;9.57;;;4.10;;
9964;SDS011;5023;53.554;9.964;2023-02-03T07:41:34;10.43;;;4.00;;
9964;SDS011;5023;53.554;9.964;2023-02-03T07:46:36;10.00;;;3.40;;
9964;SDS011;5023;53.554;9.964;2023-02-03T07:51:45;10.63;;;4.03;;
9964;SDS011;5023;53.554;9.964;2023-02-03T07:56:47;9.23;;;3.47;;
9964;SDS011;5023;53.554;9.964;2023-02-03T08:01:49;9.53;;;3.10;;
9964;SDS011;5023;53.554;9.964;2023-02-03T08:06:56;10.33;;;3.27;;
9964;SDS011;5023;53.554;9.964;2023-02-03T08:12:01;9.07;;;3.20;;
9964;SDS011;5023;53.554;9.964;2023-02-03T08:17:04;10.00;;;3.33;;
9964;SDS011;5023;53.554;9.964;2023-02-03T08:22:09;10.13;;;3.07;;
9964;SDS011;5023;53.554;9.964;2023-02-03T08:27:15;13.47;;;4.20;;
9964;SDS011;5023;53.554;9.964;2023-02-03T08:32:19;9.43;;;3.30;;
9964;SDS011;5023;53.554;9.964;2023-02-03T08:37:25;11.87;;;3.30;;
9964;SDS011;5023;53.554;9.964;2023-02-03T08:42:29;11.73;;;3.43;;
9964;SDS011;5023;53.554;9.964;2023-02-03T08:47:31;13.70;;;4.00;;
9964;SDS011;5023;53.554;9.964;2023-02-03T08:52:37;15.17;;;4.30;;
9964;SDS011;5023;53.554;9.964;2023-02-03T08:57:39;24.27;;;5.13;;
9964;SDS011;5023;53.554;9.964;2023-02-03T09:02:41;19.87;;;6.47;;
9964;SDS011;5023;53.554;9.964;2023-02-03T09:07:45;19.27;;;5.00;;
9964;SDS011;5023;53.554;9.964;2023-02-03T09:12:47;18.10;;;5.80;;
9964;SDS011;5023;53.554;9.964;2023-02-03T09:17:49;19.83;;;5.17;;
9964;SDS011;5023;53.554;9.964;2023-02-03T09:22:55;24.80;;;5.43;;
9964;SDS011;5023;53.554;9.964;2023-02-03T09:27:59;23.13;;;5.30;;
9964;SDS011;5023;53.554;9.964;2023-02-03T09:33:02;24.70;;;6.90;;
9964;SDS011;5023;53.554;9.964;2023-02-03T09:38:05;27.33;;;6.07;;
9964;SDS011;5023;53.554;9.964;2023-02-03T09:43:10;32.67;;;7.37;;
9964;SDS011;5023;53.554;9.964;2023-02-03T09:48:23;27.60;;;6.27;;
9964;SDS011;5023;53.554;9.964;2023-02-03T09:53:36;35.40;;;6.93;;
9964;SDS011;5023;53.554;9.964;2023-02-03T09:58:45;30.07;;;7.17;;
9964;SDS011;5023;53.554;9.964;2023-02-03T10:03:48;21.97;;;7.57;;
9964;SDS011;5023;53.554;9.964;2023-02-03T10:14:35;37.38;;;9.48;;
9964;SDS011;5023;53.554;9.964;2023-02-03T10:19:50;30.37;;;8.33;;
9964;SDS011;5023;53.554;9.964;2023-02-03T10:24:59;32.13;;;8.00;;
9964;SDS011;5023;53.554;9.964;2023-02-03T10:30:09;30.37;;;7.77;;
9964;SDS011;5023;53.554;9.964;2023-02-03T10:35:19;32.00;;;7.50;;
9964;SDS011;5023;53.554;9.964;2023-02-03T10:40:25;34.20;;;7.80;;
9964;SDS011;5023;53.554;9.964;2023-02-03T10:45:29;33.90;;;7.43;;
9964;SDS011;5023;53.554;9.964;2023-02-03T10:50:35;27.40;;;9.07;;
9964;SDS011;5023;53.554;9.964;2023-02-03T10:55:43;26.83;;;6.87;;
9964;SDS011;5023;53.554;9.964;2023-02-03T11:00:47;26.27;;;7.20;;
9964;SDS011;5023;53.554;9.964;2023-02-03T11:06:02;30.27;;;8.00;;
9964;SDS011;5023;53.554;9.964;2023-02-03T11:11:07;31.97;;;7.37;;
9964;SDS011;5023;53.554;9.964;2023-02-03T11:16:14;35.87;;;7.47;;
9964;SDS011;5023;53.554;9.964;2023-02-03T11:21:18;31.27;;;7.10;;
9964;SDS011;5023;53.554;9.964;2023-02-03T11:26:24;32.63;;;7.13;;
9964;SDS011;5023;53.554;9.964;2023-02-03T11:31:28;29.63;;;7.60;;
9964;SDS011;5023;53.554;9.964;2023-02-03T11:36:33;25.30;;;7.10;;
9964;SDS011;5023;53.554;9.964;2023-02-03T11:41:37;24.43;;;6.40;;
9964;SDS011;5023;53.554;9.964;2023-02-03T11:46:40;27.53;;;6.40;;
9964;SDS011;5023;53.554;9.964;2023-02-03T11:51:44;30.60;;;6.90;;
9964;SDS011;5023;53.554;9.964;2023-02-03T11:57:03;25.97;;;6.50;;
9964;SDS011;5023;53.554;9.964;2023-02-03T12:02:30;25.17;;;6.23;;
9964;SDS011;5023;53.554;9.964;2023-02-03T12:08:00;23.20;;;6.47;;
9964;SDS011;5023;53.554;9.964;2023-02-03T12:13:14;27.87;;;6.40;;
9964;SDS011;5023;53.554;9.964;2023-02-03T12:18:33;34.47;;;11.70;;
9964;SDS011;5023;53.554;9.964;2023-02-03T12:23:48;22.37;;;5.73;;
9964;SDS011;5023;53.554;9.964;2023-02-03T12:29:00;23.47;;;5.63;;
9964;SDS011;5023;53.554;9.964;2023-02-03T12:34:11;28.60;;;6.27;;
9964;SDS011;5023;53.554;9.964;2023-02-03T12:39:18;22.53;;;6.60;;
9964;SDS011;5023;53.554;9.964;2023-02-03T12:44:30;31.00;;;7.10;;
9964;SDS011;5023;53.554;9.964;2023-02-03T12:49:40;28.53;;;6.20;;
9964;SDS011;5023;53.554;9.964;2023-02-03T12:54:46;24.10;;;6.27;;
9964;SDS011;5023;53.554;9.964;2023-02-03T13:00:02;26.70;;;6.33;;
9964;SDS011;5023;53.554;9.964;2023-02-03T13:05:18;25.60;;;8.27;;
9964;SDS011;5023;53.554;9.964;2023-02-03T13:10:25;23.30;;;5.73;;
9964;SDS011;5023;53.554;9.964;2023-02-03T13:15:36;23.00;;;5.07;;
9964;SDS011;5023;53.554;9.964;2023-02-03T13:20:40;21.23;;;5.83;;
9964;SDS011;5023;53.554;9.964;2023-02-03T13:25:46;17.23;;;4.63;;
9964;SDS011;5023;53.554;9.964;2023-02-03T13:31:09;22.57;;;5.80;;
9964;SDS011;5023;53.554;9.964;2023-02-03T13:36:26;29.30;;;10.13;;
9964;SDS011;5023;53.554;9.964;2023-02-03T13:41:49;29.67;;;6.30;;
9964;SDS011;5023;53.554;9.964;2023-02-03T13:46:56;27.73;;;6.10;;
9964;SDS011;5023;53.554;9.964;2023-02-03T13:52:00;28.87;;;6.23;;
9964;SDS011;5023;53.554;9.964;2023-02-03T13:57:04;23.53;;;6.10;;
9964;SDS011;5023;53.554;9.964;2023-02-03T14:02:38;21.93;;;6.03;;
9964;SDS011;5023;53.554;9.964;2023-02-03T14:07:45;24.70;;;6.13;;
9964;SDS011;5023;53.554;9.964;2023-02-03T14:12:55;25.33;;;5.60;;
9964;SDS011;5023;53.554;9.964;2023-02-03T14:18:01;28.83;;;5.80;;
9964;SDS011;5023;53.554;9.964;2023-02-03T14:23:27;25.93;;;5.60;;
9964;SDS011;5023;53.554;9.964;2023-02-03T14:28:41;22.63;;;5.67;;
9964;SDS011;5023;53.554;9.964;2023-02-03T14:33:51;29.00;;;6.30;;
9964;SDS011;5023;53.554;9.964;2023-02-03T14:39:03;17.30;;;5.07;;
9964;SDS011;5023;53.554;9.964;2023-02-03T14:44:27;28.57;;;5.90;;
9964;SDS011;5023;53.554;9.964;2023-02-03T14:49:46;28.10;;;6.77;;
9964;SDS011;5023;53.554;9.964;2023-02-03T14:55:17;28.33;;;5.53;;
9964;SDS011;5023;53.554;9.964;2023-02-03T15:00:33;23.00;;;5.30;;
9964;SDS011;5023;53.554;9.964;2023-02-03T15:05:38;27.93;;;6.30;;
9964;SDS011;5023;53.554;9.964;2023-02-03T15:10:41;29.00;;;5.50;;
9964;SDS011;5023;53.554;9.964;2023-02-03T15:15:45;29.23;;;6.53;;
9964;SDS011;5023;53.554;9.964;2023-02-03T15:20:53;42.40;;;14.40;;
9964;SDS011;5023;53.554;9.964;2023-02-03T15:25:57;26.70;;;6.93;;
9964;SDS011;5023;53.554;9.964;2023-02-03T15:31:01;25.20;;;6.47;;
9964;SDS011;5023;53.554;9.964;2023-02-03T15:36:10;34.53;;;6.70;;
9964;SDS011;5023;53.554;9.964;2023-02-03T15:41:16;26.43;;;6.77;;
9964;SDS011;5023;53.554;9.964;2023-02-03T15:46:24;25.57;;;6.90;;
9964;SDS011;5023;53.554;9.964;2023-02-03T15:51:31;28.47;;;6.70;;
9964;SDS011;5023;53.554;9.964;2023-02-03T15:56:38;30.70;;;7.53;;
9964;SDS011;5023;53.554;9.964;2023-02-03T16:01:43;23.63;;;6.10;;
9964;SDS011;5023;53.554;9.964;2023-02-03T16:06:47;21.50;;;6.70;;
9964;SDS011;5023;53.554;9.964;2023-02-03T16:12:00;26.57;;;6.77;;
9964;SDS011;5023;53.554;9.964;2023-02-03T16:17:13;28.37;;;5.77;;
9964;SDS011;5023;53.554;9.964;2023-02-03T16:22:34;27.87;;;7.33;;
9964;SDS011;5023;53.554;9.964;2023-02-03T16:27:38;26.13;;;6.20;;
9964;SDS011;5023;53.554;9.964;2023-02-03T16:32:41;29.37;;;7.00;;
9964;SDS011;5023;53.554;9.964;2023-02-03T16:38:13;28.83;;;7.60;;
9964;SDS011;5023;53.554;9.964;2023-02-03T16:43:33;30.17;;;7.20;;
9964;SDS011;5023;53.554;9.964;2023-02-03T16:48:53;32.10;;;9.30;;
9964;SDS011;5023;53.554;9.964;2023-02-03T16:54:14;26.53;;;7.33;;
9964;SDS011;5023;53.554;9.964;2023-02-03T16:59:17;27.23;;;7.93;;
9964;SDS011;5023;53.554;9.964;2023-02-03T17:04:19;27.80;;;6.77;;
9964;SDS011;5023;53.554;9.964;2023-02-03T17:09:23;31.37;;;7.90;;
9964;SDS011;5023;53.554;9.964;2023-02-03T17:14:26;31.00;;;6.97;;
9964;SDS011;5023;53.554;9.964;2023-02-03T17:19:28;35.57;;;7.40;;
9964;SDS011;5023;53.554;9.964;2023-02-03T17:24:31;33.57;;;6.80;;
9964;SDS011;5023;53.554;9.964;2023-02-03T17:29:33;36.67;;;7.20;;
9964;SDS011;5023;53.554;9.964;2023-02-03T17:34:35;28.33;;;8.03;;
9964;SDS011;5023;53.554;9.964;2023-02-03T17:39:39;34.97;;;6.60;;
9964;SDS011;5023;53.554;9.964;2023-02-03T17:44:41;31.03;;;7.30;;
9964;SDS011;5023;53.554;9.964;2023-02-03T17:49:43;37.50;;;8.43;;
9964;SDS011;5023;53.554;9.964;2023-02-03T17:54:47;32.67;;;7.67;;
9964;SDS011;5023;53.554;9.964;2023-02-03T17:59:50;28.37;;;6.30;;
9964;SDS011;5023;53.554;9.964;2023-02-03T18:04:54;33.57;;;7.97;;
9964;SDS011;5023;53.554;9.964;2023-02-03T18:09:58;62.97;;;23.23;;
9964;SDS011;5023;53.554;9.964;2023-02-03T18:15:00;32.87;;;10.23;;
9964;SDS011;5023;53.554;9.964;2023-02-03T18:20:04;32.57;;;7.60;;
9964;SDS011;5023;53.554;9.964;2023-02-03T18:25:08;33.43;;;7.77;;
9964;SDS011;5023;53.554;9.964;2023-02-03T18:30:12;27.90;;;6.63;;
9964;SDS011;5023;53.554;9.964;2023-02-03T18:35:17;28.50;;;6.13;;
9964;SDS011;5023;53.554;9.964;2023-02-03T18:40:20;22.33;;;5.80;;
9964;SDS011;5023;53.554;9.964;2023-02-03T18:45:22;26.50;;;5.73;;
9964;SDS011;5023;53.554;9.964;2023-02-03T18:50:24;29.70;;;7.07;;
9964;SDS011;5023;53.554;9.964;2023-02-03T18:55:28;35.23;;;7.90;;
9964;SDS011;5023;53.554;9.964;2023-02-03T19:00:30;36.87;;;8.80;;
9964;SDS011;5023;53.554;9.964;2023-02-03T19:05:32;38.63;;;7.63;;
9964;SDS011;5023;53.554;9.964;2023-02-03T19:10:36;46.73;;;14.80;;
9964;SDS011;5023;53.554;9.964;2023-02-03T19:15:40;32.13;;;7.37;;
9964;SDS011;5023;53.554;9.964;2023-02-03T19:20:42;37.60;;;8.60;;
9964;SDS011;5023;53.554;9.964;2023-02-03T19:25:48;28.67;;;7.60;;
9964;SDS011;5023;53.554;9.964;2023-02-03T19:30:51;28.50;;;7.17;;
9964;SDS011;5023;53.554;9.964;2023-02-03T19:35:53;34.30;;;9.20;;
9964;SDS011;5023;53.554;9.964;2023-02-03T19:40:56;36.97;;;10.30;;
9964;SDS011;5023;53.554;9.964;2023-02-03T19:46:00;32.53;;;7.20;;
9964;SDS011;5023;53.554;9.964;2023-02-03T19:51:02;29.43;;;6.70;;
9964;SDS011;5023;53.554;9.964;2023-02-03T19:56:09;25.33;;;6.33;;
9964;SDS011;5023;53.554;9.964;2023-02-03T20:01:27;20.87;;;6.23;;
9964;SDS011;5023;53.554;9.964;2023-02-03T20:06:30;16.17;;;5.47;;
9964;SDS011;5023;53.554;9.964;2023-02-03T20:11:34;12.03;;;3.27;;
9964;SDS011;5023;53.554;9.964;2023-02-03T20:16:37;12.83;;;3.83;;
9964;SDS011;5023;53.554;9.964;2023-02-03T20:21:40;8.53;;;3.80;;
9964;SDS011;5023;53.554;9.964;2023-02-03T20:26:44;5.47;;;3.00;;
9964;SDS011;5023;53.554;9.964;2023-02-03T20:31:46;7.87;;;3.13;;
9964;SDS011;5023;53.554;9.964;2023-02-03T20:36:51;7.97;;;2.80;;
9964;SDS011;5023;53.554;9.964;2023-02-03T20:41:57;5.20;;;3.83;;
9964;SDS011;5023;53.554;9.964;2023-02-03T20:46:59;5.50;;;2.17;;
9964;SDS011;5023;53.554;9.964;2023-02-03T20:52:02;6.00;;;3.67;;
9964;SDS011;5023;53.554;9.964;2023-02-03T20:57:12;5.63;;;2.20;;
9964;SDS011;5023;53.554;9.964;2023-02-03T21:02:18;10.50;;;6.43;;
9964;SDS011;5023;53.554;9.964;2023-02-03T21:07:31;4.17;;;2.50;;
9964;SDS011;5023;53.554;9.964;2023-02-03T21:12:35;6.30;;;2.57;;
9964;SDS011;5023;53.554;9.964;2023-02-03T21:17:37;5.00;;;2.97;;
9964;SDS011;5023;53.554;9.964;2023-02-03T21:22:39;4.97;;;2.50;;
9964;SDS011;5023;53.554;9.964;2023-02-03T21:27:45;4.07;;;2.43;;
9964;SDS011;5023;53.554;9.964;2023-02-03T21:32:48;3.07;;;2.27;;
9964;SDS011;5023;53.554;9.964;2023-02-03T21:37:51;4.37;;;2.90;;
9964;SDS011;5023;53.554;9.964;2023-02-03T21:42:57;2.70;;;1.70;;
9964;SDS011;5023;53.554;9.964;2023-02-03T21:48:15;1.63;;;1.53;;
9964;SDS011;5023;53.554;9.964;2023-02-03T21:53:28;1.70;;;1.43;;
9964;SDS011;5023;53.554;9.964;2023-02-03T21:58:36;3.33;;;1.73;;
9964;SDS011;5023;53.554;9.964;2023-02-03T22:03:38;2.13;;;1.93;;
9964;SDS011;5023;53.554;9.964;2023-02-03T22:08:43;7.20;;;4.53;;
9964;SDS011;5023;53.554;9.964;2023-02-03T22:13:49;3.43;;;2.80;;
9964;SDS011;5023;53.554;9.964;2023-02-03T22:18:51;2.40;;;2.00;;
9964;SDS011;5023;53.554;9.964;2023-02-03T22:23:53;2.57;;;2.33;;
9964;SDS011;5023;53.554;9.964;2023-02-03T22:28:57;3.13;;;2.60;;
9964;SDS011;5023;53.554;9.964;2023-02-03T22:33:59;2.33;;;2.13;;
9964;SDS011;5023;53.554;9.964;2023-02-03T22:39:01;2.80;;;2.40;;
9964;SDS011;5023;53.554;9.964;2023-02-03T22:44:05;5.03;;;3.43;;
9964;SDS011;5023;53.554;9.964;2023-02-03T22:49:07;2.33;;;1.93;;
9964;SDS011;5023;53.554;9.964;2023-02-03T22:54:09;3.10;;;2.37;;
9964;SDS011;5023;53.554;9.964;2023-02-03T22:59:13;4.73;;;4.23;;
9964;SDS011;5023;53.554;9.964;2023-02-03T23:04:15;11.03;;;6.47;;
9964;SDS011;5023;53.554;9.964;2023-02-03T23:09:17;4.57;;;2.70;;
9964;SDS011;5023;53.554;9.964;2023-02-03T23:14:20;4.60;;;3.10;;
9964;SDS011;5023;53.554;9.964;2023-02-03T23:19:23;3.33;;;2.17;;
9964;SDS011;5023;53.554;9.964;2023-02-03T23:24:25;2.80;;;2.60;;
9964;SDS011;5023;53.554;9.964;2023-02-03T23:29:28;3.77;;;2.20;;
9964;SDS011;5023;53.554;9.964;2023-02-03T23:34:32;3.43;;;2.23;;
9964;SDS011;5023;53.554;9.964;2023-02-03T23:40:03;2.83;;;2.20;;
9964;SDS011;5023;53.554;9.964;2023-02-03T23:45:08;4.07;;;3.03;;
9964;SDS011;5023;53.554;9.964;2023-02-03T23:50:12;2.17;;;1.80;;
9964;SDS011;5023;53.554;9.964;2023-02-03T23:55:16;1.80;;;1.63;;
